Terminal Aerodrome Forecast
Issued by NWS

Home | Current Version | Previous Version | Text Only | Print | Product List | Glossary On
Versions: 1 2 3 4 5 6 7 8 9 10 11 12 13 14 15 16
947
FTUS46 KMTR 091720
TAFMRY
TAF
KMRY 091720Z 0918/1018 VRB03KT P6SM VCSH SCT030 BKN100
      TEMPO 0918/0920 BKN030
     FM092000 19005KT P6SM VCSH SCT015 BKN030 OVC080
     FM100300 14003KT P6SM -SHRA SCT008 OVC015
     FM100800 16004KT P6SM -RA OVC008
     FM101500 15008KT 5SM -RA BR OVC007=

USA.gov is the U.S. government's official web portal to all federal, state and local government web resources and services.